Time;durP1;ratioP1;P1;durP2;ratioP2;P2;SDS_P1;SDS_P2;PMS_P1;PMS_P2;Temp;Humidity;BMP_temperature;BMP_pressure;BME280_temperature;BME280_humidity;BME280_pressure;Samples;Min_cycle;Max_cycle;Signal;HPM_P1;HPM_P2
2022/04/08 00:00:05;;;;;;;24.02;10.45;;;;;;;5.52;81.39;99627.84;5093695;28;20024;-49
2022/04/08 00:02:30;;;;;;;18.48;9.93;;;;;;;5.55;80.92;99640.94;5093211;28;20161;-49
2022/04/08 00:04:56;;;;;;;20.75;10.00;;;;;;;5.50;81.13;99639.13;5092883;28;20453;-52
2022/04/08 00:07:21;;;;;;;17.17;9.38;;;;;;;5.45;81.53;99650.16;5093228;28;20053;-53
2022/04/08 00:09:46;;;;;;;21.77;10.40;;;;;;;5.42;82.54;99651.59;5093078;28;20036;-50
2022/04/08 00:12:12;;;;;;;22.30;10.27;;;;;;;5.35;81.27;99653.06;5092999;28;20111;-50
2022/04/08 00:14:38;;;;;;;19.85;10.82;;;;;;;5.36;82.12;99651.97;5093263;28;20020;-52
2022/04/08 00:17:04;;;;;;;20.23;9.90;;;;;;;5.40;81.44;99662.03;5093050;28;20031;-51
2022/04/08 00:19:30;;;;;;;20.02;10.15;;;;;;;5.41;81.80;99660.94;5093294;28;20490;-52
2022/04/08 00:21:55;;;;;;;23.38;10.35;;;;;;;5.34;82.12;99665.19;5093095;28;20040;-51
2022/04/08 00:24:20;;;;;;;22.75;11.23;;;;;;;5.30;83.10;99673.16;5092768;28;20107;-48
2022/04/08 00:26:46;;;;;;;21.83;11.13;;;;;;;5.33;83.10;99677.28;5093069;28;20024;-49
2022/04/08 00:29:13;;;;;;;21.60;10.82;;;;;;;5.37;83.17;99692.00;5093003;28;20032;-50
2022/04/08 00:31:38;;;;;;;22.65;11.60;;;;;;;5.31;83.50;99688.50;5092903;28;20388;-52
2022/04/08 00:34:04;;;;;;;24.27;12.23;;;;;;;5.37;82.62;99700.22;5092882;28;20096;-49
2022/04/08 00:36:30;;;;;;;21.83;11.32;;;;;;;5.37;83.09;99695.56;5092958;28;20480;-49
2022/04/08 00:38:55;;;;;;;23.98;11.38;;;;;;;5.27;83.12;99693.78;5092758;28;20434;-49
2022/04/08 00:41:20;;;;;;;20.92;10.07;;;;;;;5.29;82.66;99701.75;5092903;28;20028;-51
2022/04/08 00:43:45;;;;;;;23.00;10.35;;;;;;;5.32;82.16;99698.38;5093150;28;20032;-51
2022/04/08 00:46:11;;;;;;;22.95;10.05;;;;;;;5.30;81.86;99706.09;5093064;28;20442;-52
2022/04/08 00:48:37;;;;;;;19.58;10.27;;;;;;;5.30;82.02;99711.56;5092798;28;20036;-49
2022/04/08 00:51:04;;;;;;;21.88;10.68;;;;;;;5.33;82.34;99712.91;5092918;28;20099;-51
2022/04/08 00:53:30;;;;;;;22.35;10.77;;;;;;;5.27;81.85;99720.41;5092583;28;20032;-50
2022/04/08 00:55:56;;;;;;;24.23;10.75;;;;;;;5.20;82.95;99717.22;5092903;28;20056;-49
2022/04/08 00:58:22;;;;;;;21.80;11.00;;;;;;;5.26;82.40;99730.56;5093005;28;20024;-51
2022/04/08 01:00:48;;;;;;;23.48;11.05;;;;;;;5.23;82.52;99735.81;5092232;28;20035;-49
2022/04/08 01:03:13;;;;;;;22.83;10.70;;;;;;;5.19;83.10;99729.31;5092542;28;20024;-48
2022/04/08 01:05:39;;;;;;;18.77;10.02;;;;;;;5.17;83.75;99734.28;5092646;28;20085;-51
2022/04/08 01:08:08;;;;;;;20.98;10.40;;;;;;;5.10;83.48;99738.19;5092787;28;20020;-50
2022/04/08 01:10:33;;;;;;;21.10;10.30;;;;;;;5.15;81.48;99748.25;5092704;28;20024;-51
2022/04/08 01:12:58;;;;;;;23.40;10.20;;;;;;;5.11;81.17;99742.56;5092937;28;20521;-51
2022/04/08 01:15:25;;;;;;;19.73;10.43;;;;;;;5.05;81.87;99748.44;5092643;28;20515;-52
2022/04/08 01:17:50;;;;;;;21.30;10.40;;;;;;;5.03;81.81;99765.16;5092662;28;20472;-51
2022/04/08 01:20:16;;;;;;;22.73;10.57;;;;;;;5.02;81.39;99759.97;5092553;28;20020;-52
2022/04/08 01:22:42;;;;;;;22.23;10.18;;;;;;;5.05;81.22;99748.44;5092528;28;20028;-53
2022/04/08 01:25:09;;;;;;;20.67;10.48;;;;;;;5.03;80.65;99761.63;5092662;28;20099;-53
2022/04/08 01:27:35;;;;;;;23.88;10.40;;;;;;;5.01;80.99;99759.16;5092656;28;20024;-50
2022/04/08 01:30:01;;;;;;;20.95;10.23;;;;;;;4.98;81.47;99757.81;5092309;28;20524;-51
2022/04/08 01:32:26;;;;;;;20.73;10.05;;;;;;;5.04;81.36;99769.53;5092580;28;20468;-52
2022/04/08 01:34:53;;;;;;;20.23;10.15;;;;;;;4.98;81.94;99776.22;5092875;28;20059;-51
2022/04/08 01:37:19;;;;;;;19.42;10.00;;;;;;;5.04;81.47;99794.19;5096291;28;20038;-48
2022/04/08 01:39:44;;;;;;;21.42;10.57;;;;;;;4.86;84.25;99779.38;5096354;28;20054;-48
2022/04/08 01:42:10;;;;;;;19.50;11.20;;;;;;;4.73;85.20;99774.59;5096077;28;20050;-50
2022/04/08 01:44:36;;;;;;;21.67;11.07;;;;;;;4.53;86.20;99784.69;5096230;28;20102;-50
2022/04/08 01:47:02;;;;;;;21.23;11.15;;;;;;;4.52;85.17;99789.38;5095868;28;20027;-50
2022/04/08 01:49:27;;;;;;;19.52;10.63;;;;;;;4.41;85.72;99787.84;5095980;28;20024;-49
2022/04/08 01:51:52;;;;;;;18.52;10.52;;;;;;;4.41;85.51;99787.84;5095634;28;20020;-48
2022/04/08 01:54:18;;;;;;;21.23;10.80;;;;;;;4.40;86.30;99788.13;5095968;28;20022;-49
2022/04/08 01:56:43;;;;;;;21.35;10.45;;;;;;;4.33;86.59;99786.56;5095852;28;20032;-51
2022/04/08 01:59:08;;;;;;;19.45;10.57;;;;;;;4.33;86.82;99785.75;5096034;28;20020;-49
2022/04/08 02:01:34;;;;;;;24.40;11.85;;;;;;;4.28;86.93;99783.88;5095863;28;20092;-48
2022/04/08 02:03:59;;;;;;;25.88;12.13;;;;;;;4.26;87.22;99791.56;5095725;28;20488;-48
2022/04/08 02:06:24;;;;;;;25.40;11.32;;;;;;;4.31;86.66;99796.97;5096165;28;20431;-50
2022/04/08 02:08:50;;;;;;;24.15;11.30;;;;;;;4.37;86.25;99800.47;5095606;28;20016;-50
2022/04/08 02:11:15;;;;;;;22.35;10.70;;;;;;;4.35;87.13;99800.78;5095714;28;20032;-48
2022/04/08 02:13:41;;;;;;;21.13;10.82;;;;;;;4.35;86.86;99802.69;5095533;28;20028;-52
2022/04/08 02:16:06;;;;;;;21.77;10.13;;;;;;;4.39;86.12;99811.97;5095532;28;20024;-50
2022/04/08 02:18:31;;;;;;;21.02;10.45;;;;;;;4.39;86.65;99809.22;5095565;28;20027;-49
2022/04/08 02:20:57;;;;;;;22.55;10.52;;;;;;;4.40;86.02;99829.19;5095298;28;20360;-49
2022/04/08 02:23:22;;;;;;;20.00;9.80;;;;;;;4.45;85.25;99832.72;5095483;28;20068;-52
2022/04/08 02:25:47;;;;;;;20.05;9.80;;;;;;;4.42;84.65;99830.56;5095353;28;20022;-51
2022/04/08 02:28:13;;;;;;;16.70;9.32;;;;;;;4.29;84.80;99823.84;5095016;28;20059;-48
2022/04/08 02:30:38;;;;;;;20.35;10.20;;;;;;;4.16;85.54;99828.06;5095682;28;20457;-50
2022/04/08 02:33:04;;;;;;;18.60;10.00;;;;;;;4.12;85.04;99824.28;5095602;28;20368;-49
2022/04/08 02:35:30;;;;;;;17.98;9.68;;;;;;;3.95;84.52;99818.44;5095884;28;20028;-48
2022/04/08 02:37:56;;;;;;;19.15;9.48;;;;;;;3.91;84.91;99823.66;5095327;28;20031;-48
2022/04/08 02:40:21;;;;;;;17.98;9.80;;;;;;;3.86;85.72;99819.03;5095477;28;20028;-51
2022/04/08 02:42:46;;;;;;;18.33;9.23;;;;;;;3.87;85.26;99820.66;5095382;28;20031;-51
2022/04/08 02:45:12;;;;;;;17.92;10.43;;;;;;;3.84;86.02;99825.88;5077271;28;20036;-48
2022/04/08 02:47:44;;;;;;;18.98;10.18;;;;;;;3.86;85.87;99829.16;5093965;28;20089;-50
2022/04/08 02:50:10;;;;;;;18.95;9.80;;;;;;;3.74;86.28;99830.34;5095141;28;20024;-50
2022/04/08 02:52:36;;;;;;;18.17;10.10;;;;;;;3.72;86.23;99824.34;5094219;28;20111;-51
2022/04/08 02:55:03;;;;;;;17.60;10.38;;;;;;;3.68;86.68;99831.47;5094823;28;20038;-52
2022/04/08 02:57:28;;;;;;;17.13;9.90;;;;;;;3.66;86.40;99838.34;5094860;28;20111;-49
2022/04/08 02:59:54;;;;;;;17.70;10.68;;;;;;;3.64;87.17;99830.41;5095261;28;20082;-48
2022/04/08 03:02:19;;;;;;;16.95;9.77;;;;;;;3.62;86.89;99835.38;5094875;28;20024;-50
2022/04/08 03:04:44;;;;;;;18.10;10.38;;;;;;;3.56;87.11;99831.00;5095253;28;20024;-50
2022/04/08 03:07:10;;;;;;;15.90;9.32;;;;;;;3.48;86.61;99828.88;5094491;28;20101;-49
2022/04/08 03:09:38;;;;;;;18.00;9.73;;;;;;;3.46;86.56;99836.53;5094886;28;20020;-48
2022/04/08 03:12:04;;;;;;;14.90;9.30;;;;;;;3.34;87.27;99826.81;5094673;28;20032;-49
2022/04/08 03:14:31;;;;;;;21.45;10.70;;;;;;;3.30;87.98;99839.38;5094974;28;20169;-49
2022/04/08 03:16:56;;;;;;;19.63;10.50;;;;;;;3.25;87.66;99834.75;5094593;28;20491;-47
2022/04/08 03:19:22;;;;;;;18.73;10.52;;;;;;;3.21;88.38;99844.63;5076790;28;20024;-48
2022/04/08 03:21:47;;;;;;;21.05;10.80;;;;;;;3.18;88.88;99841.63;5094857;28;20086;-49
2022/04/08 03:24:12;;;;;;;21.15;11.60;;;;;;;3.14;88.84;99844.13;5076485;28;20036;-51
2022/04/08 03:26:39;;;;;;;16.08;10.18;;;;;;;3.11;89.44;99845.50;5076628;28;20036;-48
2022/04/08 03:29:04;;;;;;;19.10;10.20;;;;;;;3.11;89.44;99850.97;5094323;28;20028;-49
2022/04/08 03:31:29;;;;;;;18.98;10.75;;;;;;;3.10;90.10;99859.47;5076372;28;20349;-48
2022/04/08 03:33:55;;;;;;;20.75;9.93;;;;;;;3.08;89.64;99856.97;5094665;28;20050;-47
2022/04/08 03:36:20;;;;;;;20.75;11.00;;;;;;;3.04;89.96;99861.38;5094311;28;20028;-47
2022/04/08 03:38:46;;;;;;;20.95;10.65;;;;;;;3.03;90.40;99861.66;5094419;28;20039;-51
2022/04/08 03:41:11;;;;;;;18.55;10.70;;;;;;;3.05;90.70;99865.75;5094404;28;20024;-46
2022/04/08 03:43:36;;;;;;;23.85;11.00;;;;;;;3.03;90.82;99867.94;5094296;28;20458;-46
2022/04/08 03:46:01;;;;;;;21.45;10.77;;;;;;;2.99;91.08;99874.25;5094415;28;20027;-47
2022/04/08 03:48:27;;;;;;;21.38;10.52;;;;;;;2.96;91.31;99867.44;5094292;28;20019;-51
2022/04/08 03:50:53;;;;;;;21.45;11.38;;;;;;;2.95;91.30;99876.72;5093887;28;20028;-51
2022/04/08 03:53:19;;;;;;;24.33;10.63;;;;;;;2.91;91.04;99872.91;5094189;28;20020;-50
2022/04/08 03:55:45;;;;;;;20.98;10.45;;;;;;;2.89;91.19;99875.09;5094485;28;20016;-51
2022/04/08 03:58:10;;;;;;;20.75;10.73;;;;;;;2.92;90.98;99875.38;5093914;28;20502;-49
2022/04/08 04:00:37;;;;;;;20.42;10.63;;;;;;;2.87;91.21;99880.84;5093611;28;20093;-49
2022/04/08 04:03:03;;;;;;;19.90;10.43;;;;;;;2.88;91.33;99882.47;5075979;28;20027;-52
2022/04/08 04:05:30;;;;;;;21.33;10.45;;;;;;;2.87;92.08;99882.78;5093698;28;20137;-51
2022/04/08 04:07:58;;;;;;;21.17;11.23;;;;;;;2.85;91.30;99874.84;5093755;28;20020;-52
2022/04/08 04:10:23;;;;;;;20.33;11.00;;;;;;;2.82;91.22;99872.69;5093768;28;20024;-52
2022/04/08 04:12:48;;;;;;;21.10;11.18;;;;;;;2.75;91.68;99872.13;5093976;28;20073;-50
2022/04/08 04:15:15;;;;;;;19.90;10.70;;;;;;;2.72;91.44;99870.78;5075489;28;20127;-49
2022/04/08 04:17:40;;;;;;;20.38;11.20;;;;;;;2.71;91.93;99876.53;5093691;28;20465;-53
2022/04/08 04:20:06;;;;;;;20.85;10.38;;;;;;;2.67;91.51;99875.44;5075627;28;20032;-53
2022/04/08 04:22:31;;;;;;;20.88;11.18;;;;;;;2.63;91.85;99866.97;5093224;28;20399;-51
2022/04/08 04:24:56;;;;;;;19.85;11.70;;;;;;;2.63;91.71;99870.53;5093402;28;20367;-51
2022/04/08 04:27:22;;;;;;;20.75;10.50;;;;;;;2.61;91.22;99869.16;5093223;28;20024;-53
2022/04/08 04:29:47;;;;;;;17.95;10.20;;;;;;;2.55;91.61;99857.44;5093889;28;20490;-50
2022/04/08 04:32:12;;;;;;;21.73;10.75;;;;;;;2.56;91.37;99863.72;5093863;28;20031;-50
2022/04/08 04:34:38;;;;;;;20.67;11.13;;;;;;;2.53;91.69;99864.28;5093800;28;20028;-50
2022/04/08 04:37:08;;;;;;;19.05;10.48;;;;;;;2.54;91.30;99874.94;5093261;28;20024;-51
2022/04/08 04:39:34;;;;;;;18.33;10.52;;;;;;;2.56;91.00;99872.72;5093684;28;20145;-53
2022/04/08 04:41:59;;;;;;;19.15;10.82;;;;;;;2.57;91.39;99870.81;5093608;28;20059;-52
2022/04/08 04:44:26;;;;;;;21.08;10.80;;;;;;;2.54;91.05;99874.09;5093428;28;20028;-49
2022/04/08 04:46:52;;;;;;;19.52;11.15;;;;;;;2.53;91.17;99884.22;5075441;28;20024;-51
2022/04/08 04:49:17;;;;;;;21.40;10.88;;;;;;;2.48;91.36;99885.03;5093150;28;20467;-51
2022/04/08 04:51:43;;;;;;;24.33;11.18;;;;;;;2.48;91.39;99878.75;5092898;28;20465;-51
2022/04/08 04:54:08;;;;;;;18.90;11.05;;;;;;;2.48;90.70;99878.75;5093217;28;20028;-51
2022/04/08 04:56:33;;;;;;;21.88;11.02;;;;;;;2.45;91.82;99871.94;5092961;28;20371;-47
2022/04/08 04:58:58;;;;;;;20.48;11.45;;;;;;;2.44;91.66;99874.94;5093320;28;20032;-52
2022/04/08 05:01:24;;;;;;;17.98;11.05;;;;;;;2.40;91.62;99884.78;5092532;28;20484;-49
2022/04/08 05:03:49;;;;;;;22.52;11.93;;;;;;;2.35;91.72;99888.31;5092556;28;20437;-50
2022/04/08 05:06:14;;;;;;;18.65;11.15;;;;;;;2.31;92.53;99881.81;5092782;28;20044;-47
2022/04/08 05:08:40;;;;;;;23.10;12.20;;;;;;;2.27;93.03;99883.44;5093599;28;20494;-48
2022/04/08 05:11:05;;;;;;;20.42;11.23;;;;;;;2.27;92.84;99873.31;5095614;28;20046;-51
2022/04/08 05:13:32;;;;;;;22.05;11.55;;;;;;;2.30;92.67;99880.16;5096777;28;20024;-52
2022/04/08 05:15:58;;;;;;;21.77;11.43;;;;;;;2.29;92.66;99884.78;5097516;28;20376;-52
2022/04/08 05:18:23;;;;;;;22.08;11.80;;;;;;;2.32;93.24;99889.69;5096631;28;20028;-49
2022/04/08 05:20:52;;;;;;;21.15;11.00;;;;;;;2.37;93.06;99890.78;5096932;28;20028;-48
2022/04/08 05:23:18;;;;;;;20.52;11.80;;;;;;;2.36;93.70;99891.91;5096887;28;20028;-51
2022/04/08 05:25:43;;;;;;;21.02;11.80;;;;;;;2.38;93.54;99893.25;5096614;28;20118;-52
2022/04/08 05:28:11;;;;;;;22.13;11.82;;;;;;;2.40;93.58;99893.81;5097167;28;20034;-51
2022/04/08 05:30:37;;;;;;;22.48;11.90;;;;;;;2.43;93.84;99889.69;5096623;28;20020;-50
2022/04/08 05:33:02;;;;;;;21.50;11.48;;;;;;;2.48;93.59;99886.94;5096527;28;20076;-49
2022/04/08 05:35:27;;;;;;;22.83;11.45;;;;;;;2.54;94.18;99880.41;5096538;28;20021;-50
2022/04/08 05:37:53;;;;;;;21.13;11.18;;;;;;;2.62;93.69;99870.81;5096481;28;20016;-49
2022/04/08 05:40:21;;;;;;;19.55;11.07;;;;;;;2.71;93.47;99863.69;5096775;28;20032;-52
2022/04/08 05:42:48;;;;;;;21.00;10.50;;;;;;;2.78;92.50;99858.75;5096674;28;20346;-51
2022/04/08 05:45:18;;;;;;;21.33;10.90;;;;;;;2.92;92.79;99858.16;5096700;28;20024;-49
2022/04/08 05:47:49;;;;;;;19.30;10.60;;;;;;;3.00;92.62;99854.84;5096662;28;20024;-51
2022/04/08 05:50:15;;;;;;;21.25;11.00;;;;;;;3.08;91.90;99858.91;5096747;28;20024;-51
2022/04/08 05:52:41;;;;;;;19.17;10.40;;;;;;;3.13;91.17;99864.34;5095828;28;20077;-49
2022/04/08 05:55:07;;;;;;;20.08;10.57;;;;;;;3.19;90.98;99855.03;5096133;28;20102;-50
2022/04/08 05:57:34;;;;;;;20.00;10.95;;;;;;;3.25;90.75;99851.16;5095878;28;20020;-50
2022/04/08 06:00:00;;;;;;;19.70;10.75;;;;;;;3.28;90.73;99844.31;5077833;28;20138;-51
2022/04/08 06:02:25;;;;;;;22.52;10.90;;;;;;;3.31;90.53;99851.16;5096018;28;20471;-52
2022/04/08 06:04:50;;;;;;;19.27;10.73;;;;;;;3.34;90.67;99851.41;5077674;28;20400;-51
2022/04/08 06:07:16;;;;;;;20.38;10.88;;;;;;;3.39;90.46;99848.63;5095652;28;20093;-52
2022/04/08 06:09:41;;;;;;;20.48;11.10;;;;;;;3.45;89.68;99845.88;5095493;28;20027;-53
2022/04/08 06:12:07;;;;;;;20.45;10.80;;;;;;;3.51;89.70;99845.53;5095780;28;20024;-52
2022/04/08 06:14:32;;;;;;;20.30;11.20;;;;;;;3.56;89.81;99861.09;5095935;28;20020;-53
2022/04/08 06:16:57;;;;;;;22.67;11.70;;;;;;;3.60;89.52;99851.25;5095477;28;20028;-52
2022/04/08 06:19:22;;;;;;;21.33;11.30;;;;;;;3.66;89.41;99846.56;5095790;28;20024;-53
2022/04/08 06:21:48;;;;;;;20.70;11.32;;;;;;;3.71;89.49;99846.50;5095441;28;20028;-53
2022/04/08 06:24:13;;;;;;;21.75;11.57;;;;;;;3.78;89.17;99848.91;5095247;28;20032;-53
2022/04/08 06:26:39;;;;;;;20.52;12.00;;;;;;;3.84;88.95;99851.34;5095549;28;20465;-52
2022/04/08 06:29:05;;;;;;;21.10;11.80;;;;;;;3.89;88.84;99854.03;5095769;28;20141;-53
2022/04/08 06:31:32;;;;;;;24.90;12.68;;;;;;;3.93;88.99;99853.47;5095370;28;20056;-52
2022/04/08 06:34:01;;;;;;;21.08;12.20;;;;;;;3.99;89.07;99855.03;5095379;28;20043;-53
2022/04/08 06:36:27;;;;;;;21.25;12.15;;;;;;;4.02;88.39;99858.03;5095608;28;20024;-53
2022/04/08 06:38:53;;;;;;;25.20;13.55;;;;;;;4.09;88.62;99851.41;5095264;28;20027;-53
2022/04/08 06:41:18;;;;;;;23.27;14.15;;;;;;;4.18;88.77;99852.44;5095027;28;20388;-53
2022/04/08 06:43:44;;;;;;;23.95;12.68;;;;;;;4.28;88.30;99844.13;5095499;28;20039;-51
2022/04/08 06:46:09;;;;;;;22.50;12.80;;;;;;;4.35;88.35;99843.75;5095016;28;20381;-58
2022/04/08 06:48:34;;;;;;;21.42;12.75;;;;;;;4.40;87.50;99823.72;5095208;28;20032;-49
2022/04/08 06:51:04;;;;;;;21.60;12.82;;;;;;;4.51;87.40;99828.81;5095042;28;20099;-50
2022/04/08 06:53:29;;;;;;;23.15;13.55;;;;;;;4.56;87.87;99830.69;5095048;28;20031;-52
2022/04/08 06:55:54;;;;;;;24.17;13.05;;;;;;;4.68;87.41;99831.09;5076013;28;20029;-51
2022/04/08 06:58:20;;;;;;;25.45;14.07;;;;;;;4.71;87.43;99821.50;5095232;28;20032;-53
2022/04/08 07:00:45;;;;;;;23.00;13.00;;;;;;;4.80;86.87;99836.19;5094517;28;20019;-53
2022/04/08 07:03:11;;;;;;;21.75;13.10;;;;;;;4.81;86.39;99829.59;5094395;28;20035;-52
2022/04/08 07:05:36;;;;;;;22.65;12.95;;;;;;;4.82;87.29;99825.72;5094723;28;20127;-52
2022/04/08 07:08:02;;;;;;;25.42;13.13;;;;;;;4.87;86.98;99824.03;5094513;28;20110;-52
2022/04/08 07:10:27;;;;;;;23.35;13.13;;;;;;;4.91;86.73;99825.09;5094736;28;20350;-52
2022/04/08 07:12:53;;;;;;;22.00;13.52;;;;;;;4.95;86.50;99837.91;5094662;28;20072;-53
2022/04/08 07:15:18;;;;;;;22.83;12.80;;;;;;;5.01;85.77;99833.16;5094836;28;20078;-53
2022/04/08 07:17:43;;;;;;;22.92;13.23;;;;;;;5.09;86.19;99834.44;5076088;28;20123;-53
2022/04/08 07:20:10;;;;;;;22.83;13.30;;;;;;;5.19;86.06;99833.50;5094321;28;20028;-50
2022/04/08 07:22:36;;;;;;;22.20;13.00;;;;;;;5.28;85.50;99821.56;5094336;28;20110;-50
2022/04/08 07:25:01;;;;;;;19.85;11.73;;;;;;;5.37;84.52;99820.91;5093254;28;20103;-51
2022/04/08 07:27:26;;;;;;;24.17;13.27;;;;;;;5.42;84.93;99826.34;5093572;28;20035;-53
2022/04/08 07:29:52;;;;;;;21.80;12.48;;;;;;;5.48;84.47;99822.38;5093496;28;20020;-52
2022/04/08 07:32:20;;;;;;;23.60;13.13;;;;;;;5.51;83.69;99823.72;5093754;28;20030;-53
2022/04/08 07:34:50;;;;;;;22.58;12.77;;;;;;;5.58;84.99;99822.25;5093810;28;20038;-53
2022/04/08 07:37:27;;;;;;;21.15;12.57;;;;;;;5.70;83.50;99820.97;5093907;28;20032;-52
2022/04/08 07:39:52;;;;;;;20.95;12.40;;;;;;;5.70;82.75;99818.22;5094418;28;20028;-52
2022/04/08 07:42:18;;;;;;;20.85;12.25;;;;;;;5.76;83.00;99820.56;5093741;28;20318;-51
2022/04/08 07:44:43;;;;;;;21.33;11.32;;;;;;;5.81;80.85;99810.63;5093874;28;20027;-52
2022/04/08 07:47:08;;;;;;;22.08;11.45;;;;;;;5.87;81.46;99815.75;5094107;28;20066;-52
2022/04/08 07:49:33;;;;;;;20.08;11.25;;;;;;;5.92;80.69;99815.66;5075572;28;20024;-53
2022/04/08 07:51:59;;;;;;;19.83;11.43;;;;;;;5.97;80.13;99812.00;5094047;28;20020;-53
2022/04/08 07:54:24;;;;;;;20.80;11.10;;;;;;;6.01;79.02;99813.06;5094120;28;20073;-50
2022/04/08 07:56:49;;;;;;;19.92;10.73;;;;;;;6.05;78.92;99816.03;5093824;28;20346;-50
2022/04/08 07:59:15;;;;;;;20.17;10.65;;;;;;;6.08;78.49;99810.75;5093857;28;20455;-49
2022/04/08 08:01:40;;;;;;;20.88;10.95;;;;;;;6.07;78.40;99806.38;5094035;28;20172;-51
2022/04/08 08:04:06;;;;;;;20.13;10.35;;;;;;;6.12;76.70;99813.69;5093497;28;20035;-49
2022/04/08 08:06:31;;;;;;;18.85;10.13;;;;;;;6.14;76.59;99816.97;5093561;28;20480;-50
2022/04/08 08:08:58;;;;;;;20.55;10.60;;;;;;;6.16;75.93;99809.25;5093583;28;20089;-52
2022/04/08 08:11:23;;;;;;;18.63;10.30;;;;;;;6.19;76.78;99811.38;5093214;28;20525;-52
2022/04/08 08:13:48;;;;;;;19.25;10.45;;;;;;;6.25;76.53;99812.09;5093268;28;20027;-55
2022/04/08 08:16:13;;;;;;;19.50;10.40;;;;;;;6.29;75.39;99823.28;5093777;28;20051;-47
2022/04/08 08:18:39;;;;;;;16.80;10.25;;;;;;;6.34;74.47;99806.72;5093515;28;20020;-50
2022/04/08 08:21:04;;;;;;;18.20;10.07;;;;;;;6.39;75.10;99814.88;5093060;28;20044;-48
2022/04/08 08:23:29;;;;;;;18.55;10.60;;;;;;;6.48;74.94;99806.75;5093805;28;20422;-49
2022/04/08 08:25:55;;;;;;;18.45;10.20;;;;;;;6.49;75.06;99808.38;5093159;28;20535;-50
2022/04/08 08:28:22;;;;;;;22.75;10.90;;;;;;;6.51;74.63;99808.91;5093739;28;20107;-49
2022/04/08 08:30:47;;;;;;;16.85;10.30;;;;;;;6.58;73.73;99819.47;5093597;28;20032;-48
2022/04/08 08:33:13;;;;;;;19.95;10.35;;;;;;;6.63;75.32;99800.13;5093311;28;20430;-49
2022/04/08 08:35:38;;;;;;;21.02;11.05;;;;;;;6.63;74.17;99798.19;5093216;28;20040;-52
2022/04/08 08:38:03;;;;;;;17.70;10.48;;;;;;;6.70;74.16;99795.03;5093467;28;20102;-56
2022/04/08 08:40:32;;;;;;;21.77;11.88;;;;;;;6.75;74.68;99796.88;5084584;28;20025;-51
2022/04/08 08:42:59;;;;;;;21.83;10.38;;;;;;;6.80;73.65;99797.59;5073342;28;20029;-51
2022/04/08 08:45:28;;;;;;;17.83;10.15;;;;;;;6.89;72.13;99775.69;5058370;28;20021;-52
2022/04/08 08:47:59;;;;;;;18.70;10.55;;;;;;;6.94;72.80;99777.53;5077185;28;20028;-52
2022/04/08 08:50:24;;;;;;;19.63;10.48;;;;;;;7.03;72.70;99775.69;5059547;28;20119;-50
2022/04/08 08:52:50;;;;;;;16.98;9.98;;;;;;;7.06;71.79;99763.25;5076471;28;20158;-52
2022/04/08 08:55:16;;;;;;;19.17;10.30;;;;;;;7.09;71.18;99768.94;5077069;28;20028;-49
2022/04/08 08:57:42;;;;;;;18.45;10.05;;;;;;;7.10;69.81;99766.97;5076862;28;20024;-53
2022/04/08 09:00:15;;;;;;;18.38;10.60;;;;;;;7.11;70.53;99755.69;5077476;28;20066;-50
2022/04/08 09:02:41;;;;;;;19.83;10.38;;;;;;;7.20;70.83;99760.44;5076873;28;20051;-54
2022/04/08 09:05:11;;;;;;;18.23;10.35;;;;;;;7.25;69.87;99749.31;5076647;28;20337;-54
2022/04/08 09:07:36;;;;;;;17.40;10.07;;;;;;;7.36;68.80;99752.66;5077183;28;20027;-53
2022/04/08 09:10:02;;;;;;;18.42;10.10;;;;;;;7.46;69.48;99749.66;5076613;28;20017;-53
2022/04/08 09:12:31;;;;;;;18.58;9.55;;;;;;;7.55;67.66;99749.72;5076599;28;20078;-53
2022/04/08 09:14:57;;;;;;;17.42;9.68;;;;;;;7.56;65.90;99741.13;5077246;28;20056;-53
2022/04/08 09:17:25;;;;;;;17.60;10.25;;;;;;;7.63;66.26;99749.78;5077036;28;20490;-50
2022/04/08 09:19:55;;;;;;;17.80;9.80;;;;;;;7.70;67.00;99743.81;5076943;28;20103;-54
2022/04/08 09:22:24;;;;;;;17.88;9.55;;;;;;;7.77;66.41;99746.13;5076992;28;20064;-53
2022/04/08 09:24:49;;;;;;;14.85;9.20;;;;;;;7.83;65.44;99749.56;5076743;28;20071;-53
2022/04/08 09:27:14;;;;;;;17.75;9.77;;;;;;;7.87;64.78;99750.59;5057671;28;20416;-52
2022/04/08 09:29:44;;;;;;;16.90;10.25;;;;;;;7.90;65.04;99748.00;5076204;28;20032;-51
2022/04/08 09:32:12;;;;;;;19.52;10.10;;;;;;;7.92;62.71;99744.94;5075431;28;20472;-54
2022/04/08 09:34:37;;;;;;;17.85;9.65;;;;;;;7.92;62.99;99742.19;5076270;28;20035;-53
2022/04/08 09:37:11;;;;;;;19.95;10.55;;;;;;;7.90;63.95;99737.00;5076432;28;20033;-54
2022/04/08 09:39:57;;;;;;;;;;;;;;;7.99;66.00;99739.78;5076910;28;20457;-52
2022/04/08 09:42:23;;;;;;;16.02;9.43;;;;;;;7.84;63.30;99743.75;5065554;28;19947;-53
2022/04/08 09:44:49;;;;;;;16.02;9.60;;;;;;;7.76;65.92;99734.31;5076183;28;20058;-52
2022/04/08 09:47:15;;;;;;;17.98;9.60;;;;;;;7.76;65.33;99733.50;5075979;28;20085;-51
2022/04/08 09:49:41;;;;;;;19.38;10.05;;;;;;;7.76;65.01;99731.56;5076271;28;20032;-49
2022/04/08 09:52:07;;;;;;;17.02;9.90;;;;;;;7.74;64.48;99731.06;5075845;28;20024;-50
2022/04/08 09:54:34;;;;;;;17.88;10.38;;;;;;;7.77;65.86;99729.63;5075523;28;20025;-53
2022/04/08 09:57:00;;;;;;;21.15;10.30;;;;;;;7.84;65.17;99732.72;5074544;28;20039;-52
2022/04/08 09:59:32;;;;;;;18.25;10.23;;;;;;;7.94;64.69;99731.66;5075589;28;20485;-53
2022/04/08 10:01:58;;;;;;;18.30;10.10;;;;;;;7.95;65.17;99733.28;5075424;28;20035;-49
2022/04/08 10:04:24;;;;;;;18.20;9.90;;;;;;;8.00;64.31;99730.41;5075951;28;20027;-53
2022/04/08 10:06:49;;;;;;;17.65;9.60;;;;;;;8.05;63.67;99730.28;5075646;28;20053;-52
2022/04/08 10:09:18;;;;;;;16.67;9.80;;;;;;;8.06;64.65;99731.06;5075126;28;20021;-51
2022/04/08 10:12:04;;;;;;;19.13;10.10;;;;;;;8.17;64.54;99729.69;5088517;28;20043;-50
2022/04/08 10:14:38;;;;;;;17.85;9.60;;;;;;;8.27;63.99;99725.81;5096261;28;20032;-50
2022/04/08 10:17:04;;;;;;;18.60;9.93;;;;;;;8.36;63.67;99717.59;5095552;28;20077;-50
2022/04/08 10:19:30;;;;;;;16.60;10.00;;;;;;;8.42;63.42;99724.56;5095622;28;20032;-53
2022/04/08 10:21:56;;;;;;;18.88;9.90;;;;;;;8.41;63.65;99718.25;5077628;28;20439;-52
2022/04/08 10:24:26;;;;;;;19.10;9.68;;;;;;;8.41;63.03;99715.50;5095693;28;20024;-51
2022/04/08 10:27:05;;;;;;;19.95;9.93;;;;;;;8.34;63.37;99717.91;5095940;28;20039;-52
2022/04/08 10:29:33;;;;;;;19.20;9.90;;;;;;;8.37;63.50;99725.53;5095418;28;20551;-53
2022/04/08 10:32:36;;;;;;;19.38;9.73;;;;;;;8.46;63.82;99722.81;5095651;28;20020;-53
2022/04/08 10:35:12;;;;;;;18.25;10.15;;;;;;;8.47;63.02;99715.34;5095594;28;20457;-52
2022/04/08 10:37:38;;;;;;;19.08;10.02;;;;;;;8.47;62.90;99712.59;5094821;28;20424;-52
2022/04/08 10:40:10;;;;;;;19.30;10.40;;;;;;;8.49;62.76;99713.94;5095411;28;20062;-50
2022/04/08 10:42:36;;;;;;;19.38;10.20;;;;;;;8.54;63.93;99705.50;5095019;28;20048;-53
2022/04/08 10:45:14;;;;;;;18.70;9.82;;;;;;;8.63;64.37;99704.72;5095389;28;20070;-51
2022/04/08 10:47:47;;;;;;;17.65;9.77;;;;;;;8.59;62.93;99707.31;5095029;28;20024;-49
2022/04/08 10:50:24;;;;;;;17.65;9.95;;;;;;;8.58;62.09;99702.94;5095104;28;20024;-51
2022/04/08 10:52:49;;;;;;;17.05;9.45;;;;;;;8.58;60.46;99709.28;5095214;28;20089;-52
2022/04/08 10:55:14;;;;;;;19.55;9.80;;;;;;;8.58;59.96;99712.03;5095153;28;20451;-51
2022/04/08 10:57:45;;;;;;;17.75;10.00;;;;;;;8.56;62.00;99714.28;5094995;28;20063;-51
2022/04/08 11:00:19;;;;;;;17.65;10.00;;;;;;;8.59;60.77;99715.59;5095062;28;20102;-52
2022/04/08 11:02:46;;;;;;;20.33;10.15;;;;;;;8.64;61.29;99714.63;5095261;28;20028;-52
2022/04/08 11:05:13;;;;;;;18.92;10.25;;;;;;;8.69;60.40;99701.50;5094643;28;20107;-51
2022/04/08 11:07:40;;;;;;;18.05;9.48;;;;;;;8.76;59.32;99713.97;5094090;28;20459;-52
2022/04/08 11:10:08;;;;;;;19.42;9.70;;;;;;;8.77;59.14;99710.94;5094608;28;20114;-49
2022/04/08 11:12:43;;;;;;;18.05;9.75;;;;;;;8.81;59.99;99708.34;5094693;28;20028;-50
2022/04/08 11:15:16;;;;;;;18.23;10.20;;;;;;;8.74;59.51;99701.31;5094069;28;20472;-49
2022/04/08 11:17:41;;;;;;;18.83;9.98;;;;;;;8.81;60.04;99691.78;5094248;28;20066;-51
2022/04/08 11:20:12;;;;;;;18.27;10.00;;;;;;;8.89;58.68;99683.50;5094477;28;20106;-53
2022/04/08 11:22:42;;;;;;;20.30;10.40;;;;;;;8.98;59.41;99682.69;5094517;28;20032;-49